PWSweather.com
Personal Weather Stations
Station Observations
TINKAN
Cale De La Rosa And Cindi Way 1, Hereford, AZ 85615

Cale De La Rosa And Cindi Way 1Hereford, AZ 85615

Lat: 31.45672, Lon: -110.23099

Elevation: 4630

Station Type: La Crosse WS-2317

http://www.tinkan.com/weather1.html

Latest ConditionsUpdated 4:45:00 AM MST Sunday, Mar 24, 2019
Currently Today's Max Today's Min Today's Average
Temperature 38.8°F3.8°C 46.9°F8.3°C 38.8°F3.8°C 42.0°F5.6°C
Dew Point 23.1°F-4.9°C 24.1°F-4.4°C 19.9°F-6.7°C 22.3°F-5.4°C
Winds 3.8 mph E6.1 kmh E 3.8 mph -6.1 kmh - - 0.8 mph 1.3 kmh
Wind Gusts 76.3 mph122.8 kmh 93.1 mph149.8 kmh - -
Humidity 53% 53% 34% 46%
Pressure 30.13 in1020.3 mb 30.14 in1020.7 mb 30.11 in1019.6 mb -
Hour Temp Dew Point Humidity Winds Wind Gusts Pressure Precip Precip Rate Daily Precip Total
04:45 AM 38.8°F3.8°C 23.1°F-4.9°C 53% 3.8 mph E6.1 kmh E 76.3 mph122.8 kmh 30.13 in1020.3 mb 0.00 in0.0 mm 0.00 in0.0 mm 0.00 in0.0 mm
04:30 AM 39.6°F4.2°C 23.7°F-4.6°C 53% Calm Calm 2.0 mph3.2 kmh 30.13 in1020.3 mb 0.00 in0.0 mm 0.00 in0.0 mm 0.00 in0.0 mm
04:15 AM 40.3°F4.6°C 23.1°F-4.9°C 50% Calm Calm 3.1 mph5.0 kmh 30.12 in1020.0 mb 0.00 in0.0 mm 0.00 in0.0 mm 0.00 in0.0 mm
04:00 AM 40.5°F4.7°C 23.2°F-4.9°C 50% Calm Calm 4.3 mph6.9 kmh 30.12 in1020.0 mb 0.00 in0.0 mm 0.00 in0.0 mm 0.00 in0.0 mm
03:45 AM 40.8°F4.9°C 23.0°F-5.0°C 49% Calm Calm -- 30.11 in1019.6 mb 0.00 in0.0 mm 0.00 in0.0 mm 0.00 in0.0 mm
03:30 AM 42.4°F5.8°C 23.5°F-4.7°C 47% Calm Calm -- 30.11 in1019.6 mb 0.00 in0.0 mm 0.00 in0.0 mm 0.00 in0.0 mm
03:15 AM 42.4°F5.8°C 24.1°F-4.4°C 48% Calm Calm 14.3 mph23.0 kmh 30.12 in1020.0 mb 0.00 in0.0 mm 0.00 in0.0 mm 0.00 in0.0 mm
03:00 AM 41.5°F5.3°C 23.7°F-4.6°C 49% 2.5 mph W4.0 kmh W 2.5 mph4.0 kmh 30.12 in1020.0 mb 0.00 in0.0 mm 0.00 in0.0 mm 0.00 in0.0 mm
02:45 AM 41.0°F5.0°C 23.2°F-4.9°C 49% Calm Calm 4.7 mph7.6 kmh 30.12 in1020.0 mb 0.00 in0.0 mm 0.00 in0.0 mm 0.00 in0.0 mm
02:30 AM 40.8°F4.9°C 23.6°F-4.7°C 50% Calm Calm 93.1 mph149.8 kmh 30.12 in1020.0 mb 0.00 in0.0 mm 0.00 in0.0 mm 0.00 in0.0 mm
02:15 AM 41.4°F5.2°C 23.4°F-4.8°C 49% Calm Calm 75.2 mph121.0 kmh 30.12 in1020.0 mb 0.00 in0.0 mm 0.00 in0.0 mm 0.00 in0.0 mm
02:00 AM 40.8°F4.9°C 22.5°F-5.3°C 49% Calm Calm 1.6 mph2.6 kmh 30.12 in1020.0 mb 0.00 in0.0 mm 0.00 in0.0 mm 0.00 in0.0 mm
01:45 AM 41.2°F5.1°C 21.6°F-5.8°C 47% Calm Calm 3.8 mph6.1 kmh 30.12 in1020.0 mb 0.00 in0.0 mm 0.00 in0.0 mm 0.00 in0.0 mm
01:30 AM 42.1°F5.6°C 21.6°F-5.8°C 44% Calm Calm 2.9 mph4.7 kmh 30.13 in1020.3 mb 0.00 in0.0 mm 0.00 in0.0 mm 0.00 in0.0 mm
01:15 AM 42.1°F5.6°C 21.6°F-5.8°C 44% 2.2 mph SW3.5 kmh SW 4.0 mph6.4 kmh 30.13 in1020.3 mb 0.00 in0.0 mm 0.00 in0.0 mm 0.00 in0.0 mm
01:00 AM 43.5°F6.4°C 21.3°F-5.9°C 41% 1.8 mph SW2.9 kmh SW 5.6 mph9.0 kmh 30.13 in1020.3 mb 0.00 in0.0 mm 0.00 in0.0 mm 0.00 in0.0 mm
12:45 AM 45.0°F7.2°C 20.7°F-6.3°C 38% 2.2 mph SW3.5 kmh SW 2.2 mph3.5 kmh 30.14 in1020.7 mb 0.00 in0.0 mm 0.00 in0.0 mm 0.00 in0.0 mm
12:30 AM 44.4°F6.9°C 20.2°F-6.6°C 38% 3.1 mph SW5.0 kmh SW 3.1 mph5.0 kmh 30.14 in1020.7 mb 0.00 in0.0 mm 0.00 in0.0 mm 0.00 in0.0 mm
12:15 AM 45.3°F7.4°C 19.9°F-6.7°C 36% Calm Calm -- 30.14 in1020.7 mb 0.00 in0.0 mm 0.00 in0.0 mm 0.00 in0.0 mm
12:00 AM 46.9°F8.3°C 19.9°F-6.7°C 34% Calm Calm -- 30.14 in1020.7 mb 0.00 in0.0 mm 0.00 in0.0 mm 0.00 in0.0 mm